createdAt,value
2023-05-05T00:03:19.627Z,49.88
2023-05-05T00:08:21.516Z,49.44
2023-05-05T00:13:23.074Z,49.20
2023-05-05T00:18:24.546Z,48.43
2023-05-05T00:23:27.427Z,49.52
2023-05-05T00:28:28.892Z,49.88
2023-05-05T00:33:30.540Z,49.38
2023-05-05T00:38:32.080Z,49.86
2023-05-05T00:43:33.548Z,50.69
2023-05-05T00:48:35.001Z,47.95
2023-05-05T00:53:36.513Z,48.43
2023-05-05T00:58:37.983Z,48.87
2023-05-05T01:03:39.790Z,49.75
2023-05-05T01:08:49.950Z,47.97
2023-05-05T01:14:06.213Z,46.51
2023-05-05T01:19:40.959Z,46.32
2023-05-05T01:25:05.518Z,46.84
2023-05-05T01:30:26.734Z,47.27
2023-05-05T01:35:29.862Z,45.54
2023-05-05T01:40:33.595Z,46.60
2023-05-05T01:45:36.185Z,46.28
2023-05-05T01:50:37.689Z,44.60
2023-05-05T01:55:39.214Z,44.70
2023-05-05T02:00:40.683Z,45.31
2023-05-05T02:05:42.163Z,45.88
2023-05-05T02:10:43.649Z,45.45
2023-05-05T02:15:45.282Z,45.48
2023-05-05T02:20:46.754Z,47.53
2023-05-05T02:25:52.957Z,47.56
2023-05-05T02:30:58.268Z,47.45
2023-05-05T02:35:59.865Z,47.32
2023-05-05T02:41:01.320Z,48.64
2023-05-05T02:46:02.868Z,47.78
2023-05-05T02:51:04.508Z,48.33
2023-05-05T02:56:28.868Z,48.81
2023-05-05T03:01:59.267Z,47.73
2023-05-05T03:07:14.416Z,49.36
2023-05-05T03:12:21.823Z,48.99
2023-05-05T03:17:23.293Z,48.12
2023-05-05T03:22:24.845Z,48.59
2023-05-05T03:27:26.310Z,51.10
2023-05-05T03:32:27.806Z,50.55
2023-05-05T03:37:29.293Z,50.78
2023-05-05T03:42:30.748Z,51.05
2023-05-05T03:47:32.257Z,51.89
2023-05-05T03:52:33.737Z,51.82
2023-05-05T03:57:35.357Z,52.23
2023-05-05T04:02:36.936Z,51.69
2023-05-05T04:07:38.428Z,51.14
2023-05-05T04:12:39.918Z,51.85
2023-05-05T04:17:41.434Z,52.17
2023-05-05T04:22:43.005Z,52.74
2023-05-05T04:27:44.461Z,53.08
2023-05-05T04:32:45.944Z,52.59
2023-05-05T04:37:47.416Z,53.44
2023-05-05T04:42:48.935Z,53.16
2023-05-05T04:47:50.434Z,54.16
2023-05-05T04:52:52.779Z,54.02
2023-05-05T04:57:54.394Z,53.76
2023-05-05T05:02:56.099Z,54.14
2023-05-05T05:07:57.641Z,53.07
2023-05-05T05:12:59.152Z,52.73
2023-05-05T05:18:00.703Z,53.89
2023-05-05T05:23:02.336Z,53.55
2023-05-05T05:28:10.058Z,53.86
2023-05-05T05:33:12.513Z,53.78
2023-05-05T05:38:14.162Z,55.38
2023-05-05T05:43:15.637Z,54.74
2023-05-05T05:48:17.096Z,54.83
2023-05-05T05:53:18.605Z,54.50
2023-05-05T05:58:20.086Z,53.83
2023-05-05T06:03:21.663Z,53.56
2023-05-05T06:08:24.979Z,53.61
2023-05-05T06:13:26.649Z,53.35
2023-05-05T06:18:30.424Z,53.59
2023-05-05T06:23:31.898Z,53.92
2023-05-05T06:28:33.399Z,53.63
2023-05-05T06:33:34.863Z,54.86
2023-05-05T06:38:36.411Z,54.47
2023-05-05T06:43:37.882Z,53.93
2023-05-05T06:48:39.337Z,54.43
2023-05-05T06:53:41.013Z,55.28
2023-05-05T06:58:42.565Z,53.85
2023-05-05T07:03:44.702Z,53.36
2023-05-05T07:08:46.245Z,53.04
2023-05-05T07:13:49.191Z,53.16
2023-05-05T07:18:50.696Z,53.68
2023-05-05T07:23:52.546Z,53.17
2023-05-05T07:28:56.022Z,52.89
2023-05-05T07:33:57.465Z,51.70
2023-05-05T07:38:58.933Z,50.39
2023-05-05T07:44:01.143Z,51.32
2023-05-05T07:49:03.007Z,51.61
2023-05-05T07:54:04.470Z,51.03
2023-05-05T07:59:05.988Z,50.91
2023-05-05T08:04:07.649Z,51.36
2023-05-05T08:09:10.320Z,51.77
2023-05-05T08:14:11.669Z,52.62
2023-05-05T08:19:27.586Z,51.89
2023-05-05T08:24:30.286Z,52.45
2023-05-05T08:29:31.766Z,53.06
2023-05-05T08:34:33.245Z,52.97
2023-05-05T08:39:34.702Z,53.59
2023-05-05T08:44:36.228Z,52.45
2023-05-05T08:49:42.454Z,53.40
2023-05-05T08:54:51.499Z,52.78
2023-05-05T08:59:53.046Z,53.39
2023-05-05T09:04:54.501Z,53.14
2023-05-05T09:09:55.947Z,53.38
2023-05-05T09:14:59.310Z,53.15
2023-05-05T09:20:05.126Z,52.62
2023-05-05T09:25:07.737Z,52.17
2023-05-05T09:30:10.738Z,51.97
2023-05-05T09:35:12.232Z,50.88
2023-05-05T09:40:15.814Z,50.13
2023-05-05T09:45:17.172Z,49.21
2023-05-05T09:50:19.126Z,49.04
2023-05-05T09:55:20.856Z,48.48
2023-05-05T10:00:22.416Z,47.58
2023-05-05T10:05:23.942Z,47.25
2023-05-05T10:10:27.477Z,47.67
2023-05-05T10:15:30.088Z,46.95
2023-05-05T10:20:31.637Z,46.75
2023-05-05T10:25:36.996Z,46.51
2023-05-05T10:30:42.718Z,46.39
2023-05-05T10:35:44.468Z,47.03
2023-05-05T10:40:45.966Z,46.22
2023-05-05T10:45:51.924Z,45.73
2023-05-05T10:51:09.090Z,44.78
2023-05-05T10:56:40.288Z,45.04
2023-05-05T11:01:41.867Z,46.06
2023-05-05T11:07:11.815Z,45.97
2023-05-05T11:12:16.005Z,46.41
2023-05-05T11:17:46.357Z,46.75
2023-05-05T11:23:03.053Z,45.73
2023-05-05T11:28:14.651Z,45.69
2023-05-05T11:33:28.992Z,46.22
2023-05-05T11:38:36.370Z,45.87
2023-05-05T11:43:37.996Z,45.81
2023-05-05T11:48:46.222Z,44.88
2023-05-05T11:53:49.345Z,44.18
2023-05-05T11:59:08.536Z,44.46
2023-05-05T12:04:16.238Z,43.65
2023-05-05T12:09:18.895Z,44.74
2023-05-05T12:14:20.742Z,44.69
2023-05-05T12:19:22.376Z,43.52
2023-05-05T12:24:23.832Z,43.63
2023-05-05T12:29:26.072Z,44.03
2023-05-05T12:34:27.592Z,44.25
2023-05-05T12:39:38.209Z,44.64
2023-05-05T12:44:40.114Z,44.31
2023-05-05T12:49:45.859Z,44.68
2023-05-05T12:54:57.387Z,44.30
2023-05-05T12:59:58.854Z,44.76
2023-05-05T13:05:00.358Z,45.00
2023-05-05T13:10:10.359Z,43.51
2023-05-05T13:15:12.160Z,44.10
2023-05-05T13:20:14.042Z,43.39
2023-05-05T13:25:15.516Z,43.04
2023-05-05T13:30:17.002Z,44.54
2023-05-05T13:35:18.478Z,44.16
2023-05-05T13:40:19.970Z,44.24
2023-05-05T13:45:21.470Z,43.98
2023-05-05T13:50:23.880Z,46.34
2023-05-05T13:55:25.247Z,45.53
2023-05-05T14:00:27.749Z,44.86
2023-05-05T14:05:29.223Z,44.23
2023-05-05T14:10:31.028Z,45.11
2023-05-05T14:15:32.758Z,45.19
2023-05-05T14:20:34.301Z,46.42
2023-05-05T14:25:35.749Z,47.62
2023-05-05T14:30:37.223Z,47.18
2023-05-05T14:35:38.696Z,47.69
2023-05-05T14:40:40.550Z,46.80
2023-05-05T14:45:42.032Z,45.85
2023-05-05T14:50:46.225Z,46.04
2023-05-05T14:55:47.740Z,46.57
2023-05-05T15:00:49.219Z,47.54
2023-05-05T15:05:50.745Z,46.60
2023-05-05T15:10:52.307Z,46.39
2023-05-05T15:15:53.832Z,46.18
2023-05-05T15:20:55.406Z,47.18
2023-05-05T15:25:56.893Z,46.21
2023-05-05T15:31:02.014Z,45.30
2023-05-05T15:36:03.536Z,46.77
2023-05-05T15:41:06.356Z,45.59
2023-05-05T15:46:07.838Z,45.94
2023-05-05T15:51:11.446Z,46.48
2023-05-05T15:56:12.955Z,46.02
2023-05-05T16:01:17.013Z,46.17
2023-05-05T16:06:18.545Z,46.39
2023-05-05T16:11:22.324Z,45.91
2023-05-05T16:16:23.966Z,45.08
2023-05-05T16:21:25.721Z,45.72
2023-05-05T16:26:27.208Z,44.98
2023-05-05T16:31:28.769Z,45.55
2023-05-05T16:36:30.270Z,45.25
2023-05-05T16:41:31.754Z,45.00
2023-05-05T16:46:33.957Z,45.20
2023-05-05T16:51:35.475Z,46.14
2023-05-05T16:56:36.945Z,46.59
2023-05-05T17:01:38.481Z,47.87
2023-05-05T17:06:40.019Z,47.89
2023-05-05T17:11:41.547Z,48.06
2023-05-05T17:16:43.167Z,47.39
2023-05-05T17:21:44.707Z,49.11
2023-05-05T17:26:47.192Z,48.73
2023-05-05T17:31:51.773Z,49.31
2023-05-05T17:36:53.312Z,51.02
2023-05-05T17:41:55.716Z,50.84
2023-05-05T17:47:04.109Z,51.73
2023-05-05T17:52:05.608Z,51.91
2023-05-05T17:57:07.082Z,51.61
2023-05-05T18:02:08.689Z,51.18
2023-05-05T18:07:11.855Z,51.40
2023-05-05T18:12:13.335Z,52.59
2023-05-05T18:17:14.881Z,52.30
2023-05-05T18:22:16.873Z,52.47
2023-05-05T18:27:18.468Z,52.76
2023-05-05T18:32:29.198Z,53.11
2023-05-05T18:37:37.046Z,53.55
2023-05-05T18:42:43.051Z,52.99
2023-05-05T18:47:44.793Z,53.44
2023-05-05T18:52:46.286Z,53.58
2023-05-05T18:57:47.857Z,54.15
2023-05-05T19:02:49.390Z,53.92
2023-05-05T19:07:50.877Z,54.63
2023-05-05T19:12:52.437Z,54.27
2023-05-05T19:17:54.278Z,54.08
2023-05-05T19:22:58.169Z,54.32
2023-05-05T19:27:59.677Z,55.19
2023-05-05T19:33:01.177Z,55.62
2023-05-05T19:38:02.676Z,54.94
2023-05-05T19:43:04.243Z,55.83
2023-05-05T19:48:06.287Z,55.33
2023-05-05T19:53:07.747Z,55.71
2023-05-05T19:58:09.292Z,55.15
2023-05-05T20:03:11.022Z,55.21
2023-05-05T20:08:12.608Z,54.59
2023-05-05T20:13:14.212Z,54.95
2023-05-05T20:18:15.759Z,55.61
2023-05-05T20:23:17.213Z,55.24
2023-05-05T20:28:18.698Z,55.90
2023-05-05T20:33:20.202Z,56.18
2023-05-05T20:38:21.760Z,56.34
2023-05-05T20:43:26.097Z,55.98
2023-05-05T20:53:47.856Z,56.51
2023-05-05T20:58:49.495Z,56.29
2023-05-05T21:03:51.021Z,57.79
2023-05-05T21:08:52.495Z,57.01
2023-05-05T21:13:54.063Z,56.76
2023-05-05T21:18:55.584Z,57.03
2023-05-05T21:23:57.625Z,56.87
2023-05-05T21:28:59.151Z,56.61
2023-05-05T21:34:00.692Z,56.34
2023-05-05T21:39:02.238Z,56.71
2023-05-05T21:44:03.688Z,56.76
2023-05-05T21:49:15.167Z,55.73
2023-05-05T21:54:18.672Z,56.74
2023-05-05T21:59:20.294Z,57.17
2023-05-05T22:04:22.083Z,57.85
2023-05-05T22:09:23.573Z,58.29
2023-05-05T22:14:25.484Z,59.09
2023-05-05T22:19:27.050Z,58.53
2023-05-05T22:24:30.062Z,59.34
2023-05-05T22:29:32.373Z,59.25
2023-05-05T22:34:38.487Z,58.79
2023-05-05T22:39:40.574Z,57.68
2023-05-05T22:44:42.033Z,58.57
2023-05-05T22:49:43.560Z,59.17
2023-05-05T22:54:45.203Z,58.88
2023-05-05T22:59:47.255Z,58.35
2023-05-05T23:04:48.845Z,58.44
2023-05-05T23:09:50.357Z,57.70
2023-05-05T23:14:52.365Z,58.61
2023-05-05T23:19:53.835Z,58.29
2023-05-05T23:24:55.318Z,58.28
2023-05-05T23:29:56.791Z,58.38
2023-05-05T23:34:58.261Z,58.28
2023-05-05T23:39:59.807Z,58.19
2023-05-05T23:45:01.332Z,58.67
2023-05-05T23:50:03.213Z,58.62
2023-05-05T23:55:05.604Z,58.94
